sensor_id;sensor_type;location;lat;lon;timestamp;P1;durP1;ratioP1;P2;durP2;ratioP2
47625;SDS011;33342;45.574;9.252;2022-09-20T00:03:34;1.65;;;0.50;;
47625;SDS011;33342;45.574;9.252;2022-09-20T00:06:03;1.33;;;0.55;;
47625;SDS011;33342;45.574;9.252;2022-09-20T00:08:33;1.05;;;0.50;;
47625;SDS011;33342;45.574;9.252;2022-09-20T00:11:04;1.90;;;0.82;;
47625;SDS011;33342;45.574;9.252;2022-09-20T00:13:41;3.95;;;0.90;;
47625;SDS011;33342;45.574;9.252;2022-09-20T00:16:11;2.15;;;0.80;;
47625;SDS011;33342;45.574;9.252;2022-09-20T00:18:40;2.30;;;0.90;;
47625;SDS011;33342;45.574;9.252;2022-09-20T00:21:13;5.13;;;0.65;;
47625;SDS011;33342;45.574;9.252;2022-09-20T00:23:45;1.80;;;0.60;;
47625;SDS011;33342;45.574;9.252;2022-09-20T00:26:12;3.05;;;0.82;;
47625;SDS011;33342;45.574;9.252;2022-09-20T00:28:40;1.45;;;0.73;;
47625;SDS011;33342;45.574;9.252;2022-09-20T00:31:07;2.15;;;0.70;;
47625;SDS011;33342;45.574;9.252;2022-09-20T00:33:36;2.00;;;0.98;;
47625;SDS011;33342;45.574;9.252;2022-09-20T00:36:21;3.22;;;0.90;;
47625;SDS011;33342;45.574;9.252;2022-09-20T00:38:48;2.72;;;0.90;;
47625;SDS011;33342;45.574;9.252;2022-09-20T00:41:15;2.05;;;0.80;;
47625;SDS011;33342;45.574;9.252;2022-09-20T00:43:43;3.38;;;0.70;;
47625;SDS011;33342;45.574;9.252;2022-09-20T00:48:45;1.95;;;0.73;;
47625;SDS011;33342;45.574;9.252;2022-09-20T00:51:13;3.17;;;0.80;;
47625;SDS011;33342;45.574;9.252;2022-09-20T00:53:44;1.98;;;0.80;;
47625;SDS011;33342;45.574;9.252;2022-09-20T00:56:15;3.25;;;0.88;;
47625;SDS011;33342;45.574;9.252;2022-09-20T00:59:33;1.67;;;0.90;;
47625;SDS011;33342;45.574;9.252;2022-09-20T01:01:43;2.92;;;0.80;;
47625;SDS011;33342;45.574;9.252;2022-09-20T01:04:13;1.40;;;0.80;;
47625;SDS011;33342;45.574;9.252;2022-09-20T01:06:44;2.72;;;0.85;;
47625;SDS011;33342;45.574;9.252;2022-09-20T01:09:12;3.03;;;0.73;;
47625;SDS011;33342;45.574;9.252;2022-09-20T01:11:40;3.75;;;1.40;;
47625;SDS011;33342;45.574;9.252;2022-09-20T01:14:07;2.13;;;0.80;;
47625;SDS011;33342;45.574;9.252;2022-09-20T01:16:34;2.80;;;0.82;;
47625;SDS011;33342;45.574;9.252;2022-09-20T01:19:05;2.45;;;0.95;;
47625;SDS011;33342;45.574;9.252;2022-09-20T01:21:45;2.58;;;0.80;;
47625;SDS011;33342;45.574;9.252;2022-09-20T01:27:01;1.33;;;0.55;;
47625;SDS011;33342;45.574;9.252;2022-09-20T01:30:05;0.93;;;0.50;;
47625;SDS011;33342;45.574;9.252;2022-09-20T01:35:27;1.88;;;0.60;;
47625;SDS011;33342;45.574;9.252;2022-09-20T01:38:02;1.38;;;0.60;;
47625;SDS011;33342;45.574;9.252;2022-09-20T01:40:33;1.77;;;0.82;;
47625;SDS011;33342;45.574;9.252;2022-09-20T01:46:27;1.70;;;0.70;;
47625;SDS011;33342;45.574;9.252;2022-09-20T01:58:09;2.13;;;0.55;;
47625;SDS011;33342;45.574;9.252;2022-09-20T02:28:56;1.67;;;0.70;;
47625;SDS011;33342;45.574;9.252;2022-09-20T02:34:45;2.67;;;0.70;;
47625;SDS011;33342;45.574;9.252;2022-09-20T02:46:02;2.80;;;0.77;;
47625;SDS011;33342;45.574;9.252;2022-09-20T02:59:37;1.90;;;0.60;;
47625;SDS011;33342;45.574;9.252;2022-09-20T03:08:12;2.13;;;0.70;;
47625;SDS011;33342;45.574;9.252;2022-09-20T03:14:25;2.53;;;0.75;;
47625;SDS011;33342;45.574;9.252;2022-09-20T03:19:57;2.25;;;0.70;;
47625;SDS011;33342;45.574;9.252;2022-09-20T03:22:53;2.80;;;0.80;;
47625;SDS011;33342;45.574;9.252;2022-09-20T03:28:10;2.35;;;0.70;;
47625;SDS011;33342;45.574;9.252;2022-09-20T03:30:59;1.05;;;0.60;;
47625;SDS011;33342;45.574;9.252;2022-09-20T03:33:49;1.98;;;0.82;;
47625;SDS011;33342;45.574;9.252;2022-09-20T03:39:10;1.70;;;0.65;;
47625;SDS011;33342;45.574;9.252;2022-09-20T04:04:06;4.25;;;0.98;;
47625;SDS011;33342;45.574;9.252;2022-09-20T04:06:46;2.83;;;0.98;;
47625;SDS011;33342;45.574;9.252;2022-09-20T04:15:15;2.53;;;0.90;;
47625;SDS011;33342;45.574;9.252;2022-09-20T04:21:15;3.45;;;0.90;;
47625;SDS011;33342;45.574;9.252;2022-09-20T04:26:27;3.08;;;1.15;;
47625;SDS011;33342;45.574;9.252;2022-09-20T04:29:01;2.97;;;1.02;;
47625;SDS011;33342;45.574;9.252;2022-09-20T04:34:44;4.22;;;1.27;;
47625;SDS011;33342;45.574;9.252;2022-09-20T04:37:40;4.25;;;1.10;;
47625;SDS011;33342;45.574;9.252;2022-09-20T04:40:14;4.72;;;1.38;;
47625;SDS011;33342;45.574;9.252;2022-09-20T04:45:40;7.25;;;2.95;;
47625;SDS011;33342;45.574;9.252;2022-09-20T04:51:27;3.58;;;1.48;;
47625;SDS011;33342;45.574;9.252;2022-09-20T04:56:57;6.15;;;2.10;;
47625;SDS011;33342;45.574;9.252;2022-09-20T05:00:10;5.82;;;1.90;;
47625;SDS011;33342;45.574;9.252;2022-09-20T05:11:06;6.80;;;2.03;;
47625;SDS011;33342;45.574;9.252;2022-09-20T05:17:06;6.13;;;2.00;;
47625;SDS011;33342;45.574;9.252;2022-09-20T05:31:10;5.63;;;1.92;;
47625;SDS011;33342;45.574;9.252;2022-09-20T05:33:50;6.95;;;2.03;;
47625;SDS011;33342;45.574;9.252;2022-09-20T05:39:41;4.50;;;1.92;;
47625;SDS011;33342;45.574;9.252;2022-09-20T05:42:18;7.03;;;2.05;;
47625;SDS011;33342;45.574;9.252;2022-09-20T05:47:26;4.65;;;1.90;;
47625;SDS011;33342;45.574;9.252;2022-09-20T05:52:58;4.28;;;1.45;;
47625;SDS011;33342;45.574;9.252;2022-09-20T05:58:27;5.18;;;1.90;;
47625;SDS011;33342;45.574;9.252;2022-09-20T06:01:18;3.35;;;1.35;;
47625;SDS011;33342;45.574;9.252;2022-09-20T06:04:00;4.85;;;1.50;;
47625;SDS011;33342;45.574;9.252;2022-09-20T06:12:22;5.43;;;1.27;;
47625;SDS011;33342;45.574;9.252;2022-09-20T06:15:03;5.75;;;1.20;;
47625;SDS011;33342;45.574;9.252;2022-09-20T06:23:27;5.32;;;1.85;;
47625;SDS011;33342;45.574;9.252;2022-09-20T06:26:00;5.43;;;1.35;;
47625;SDS011;33342;45.574;9.252;2022-09-20T06:28:43;7.22;;;2.38;;
47625;SDS011;33342;45.574;9.252;2022-09-20T06:31:15;6.50;;;1.42;;
47625;SDS011;33342;45.574;9.252;2022-09-20T06:36:33;8.45;;;1.50;;
47625;SDS011;33342;45.574;9.252;2022-09-20T06:39:33;7.63;;;1.75;;
47625;SDS011;33342;45.574;9.252;2022-09-20T06:42:27;6.88;;;1.80;;
47625;SDS011;33342;45.574;9.252;2022-09-20T06:44:55;4.35;;;1.30;;
47625;SDS011;33342;45.574;9.252;2022-09-20T06:47:22;2.13;;;0.93;;
47625;SDS011;33342;45.574;9.252;2022-09-20T06:49:49;4.78;;;1.58;;
47625;SDS011;33342;45.574;9.252;2022-09-20T06:52:20;5.53;;;1.88;;
47625;SDS011;33342;45.574;9.252;2022-09-20T06:54:49;7.43;;;2.05;;
47625;SDS011;33342;45.574;9.252;2022-09-20T06:57:37;6.15;;;1.50;;
47625;SDS011;33342;45.574;9.252;2022-09-20T07:00:04;7.53;;;1.67;;
47625;SDS011;33342;45.574;9.252;2022-09-20T07:02:35;7.30;;;1.75;;
47625;SDS011;33342;45.574;9.252;2022-09-20T07:05:02;6.38;;;1.70;;
47625;SDS011;33342;45.574;9.252;2022-09-20T07:07:31;6.38;;;2.30;;
47625;SDS011;33342;45.574;9.252;2022-09-20T07:09:58;5.25;;;1.73;;
47625;SDS011;33342;45.574;9.252;2022-09-20T07:12:27;11.07;;;1.70;;
47625;SDS011;33342;45.574;9.252;2022-09-20T07:14:54;6.97;;;2.38;;
47625;SDS011;33342;45.574;9.252;2022-09-20T07:17:21;8.50;;;2.75;;
47625;SDS011;33342;45.574;9.252;2022-09-20T07:19:48;5.97;;;2.40;;
47625;SDS011;33342;45.574;9.252;2022-09-20T07:22:15;5.80;;;1.70;;
47625;SDS011;33342;45.574;9.252;2022-09-20T07:24:42;4.95;;;1.38;;
47625;SDS011;33342;45.574;9.252;2022-09-20T07:27:10;6.10;;;1.50;;
47625;SDS011;33342;45.574;9.252;2022-09-20T07:29:37;6.63;;;2.00;;
47625;SDS011;33342;45.574;9.252;2022-09-20T07:32:06;6.53;;;1.50;;
47625;SDS011;33342;45.574;9.252;2022-09-20T07:34:33;4.10;;;1.48;;
47625;SDS011;33342;45.574;9.252;2022-09-20T07:37:00;3.97;;;1.25;;
47625;SDS011;33342;45.574;9.252;2022-09-20T07:39:27;3.95;;;1.17;;
47625;SDS011;33342;45.574;9.252;2022-09-20T07:41:55;6.55;;;2.03;;
47625;SDS011;33342;45.574;9.252;2022-09-20T07:44:22;7.85;;;1.52;;
47625;SDS011;33342;45.574;9.252;2022-09-20T07:46:54;4.07;;;1.73;;
47625;SDS011;33342;45.574;9.252;2022-09-20T07:49:25;4.10;;;1.30;;
47625;SDS011;33342;45.574;9.252;2022-09-20T07:51:55;4.65;;;1.27;;
47625;SDS011;33342;45.574;9.252;2022-09-20T07:54:23;3.75;;;1.10;;
47625;SDS011;33342;45.574;9.252;2022-09-20T07:56:50;5.53;;;1.35;;
47625;SDS011;33342;45.574;9.252;2022-09-20T07:59:17;5.55;;;1.35;;
47625;SDS011;33342;45.574;9.252;2022-09-20T08:01:44;9.73;;;1.63;;
47625;SDS011;33342;45.574;9.252;2022-09-20T08:04:11;7.45;;;1.42;;
47625;SDS011;33342;45.574;9.252;2022-09-20T08:06:39;6.80;;;2.50;;
47625;SDS011;33342;45.574;9.252;2022-09-20T08:09:08;3.85;;;1.33;;
47625;SDS011;33342;45.574;9.252;2022-09-20T08:11:37;3.67;;;1.20;;
47625;SDS011;33342;45.574;9.252;2022-09-20T08:14:05;4.22;;;1.17;;
47625;SDS011;33342;45.574;9.252;2022-09-20T08:16:38;5.57;;;1.48;;
47625;SDS011;33342;45.574;9.252;2022-09-20T08:19:17;3.80;;;1.42;;
47625;SDS011;33342;45.574;9.252;2022-09-20T08:21:46;3.13;;;1.17;;
47625;SDS011;33342;45.574;9.252;2022-09-20T08:24:13;3.55;;;1.00;;
47625;SDS011;33342;45.574;9.252;2022-09-20T08:26:42;3.55;;;1.08;;
47625;SDS011;33342;45.574;9.252;2022-09-20T08:29:10;2.90;;;1.10;;
47625;SDS011;33342;45.574;9.252;2022-09-20T08:31:38;2.80;;;1.35;;
47625;SDS011;33342;45.574;9.252;2022-09-20T08:34:08;2.17;;;0.70;;
47625;SDS011;33342;45.574;9.252;2022-09-20T08:36:38;2.03;;;1.10;;
47625;SDS011;33342;45.574;9.252;2022-09-20T08:39:07;7.53;;;1.83;;
47625;SDS011;33342;45.574;9.252;2022-09-20T08:42:08;2.78;;;0.85;;
47625;SDS011;33342;45.574;9.252;2022-09-20T08:44:55;4.43;;;1.42;;
47625;SDS011;33342;45.574;9.252;2022-09-20T08:47:26;6.25;;;2.10;;
47625;SDS011;33342;45.574;9.252;2022-09-20T08:49:56;6.13;;;1.80;;
47625;SDS011;33342;45.574;9.252;2022-09-20T08:52:26;2.97;;;1.08;;
47625;SDS011;33342;45.574;9.252;2022-09-20T08:55:02;2.67;;;0.82;;
47625;SDS011;33342;45.574;9.252;2022-09-20T08:57:42;3.25;;;0.93;;
47625;SDS011;33342;45.574;9.252;2022-09-20T09:00:18;3.65;;;0.93;;
47625;SDS011;33342;45.574;9.252;2022-09-20T09:02:48;3.15;;;0.90;;
47625;SDS011;33342;45.574;9.252;2022-09-20T09:08:12;2.65;;;0.60;;
47625;SDS011;33342;45.574;9.252;2022-09-20T09:10:47;2.90;;;0.95;;
47625;SDS011;33342;45.574;9.252;2022-09-20T09:13:21;4.97;;;0.80;;
47625;SDS011;33342;45.574;9.252;2022-09-20T09:15:59;3.10;;;1.25;;
47625;SDS011;33342;45.574;9.252;2022-09-20T09:18:38;4.10;;;1.20;;
47625;SDS011;33342;45.574;9.252;2022-09-20T09:21:06;2.40;;;0.93;;
47625;SDS011;33342;45.574;9.252;2022-09-20T09:23:37;3.30;;;0.90;;
47625;SDS011;33342;45.574;9.252;2022-09-20T09:26:14;3.25;;;0.90;;
47625;SDS011;33342;45.574;9.252;2022-09-20T09:28:59;4.28;;;0.90;;
47625;SDS011;33342;45.574;9.252;2022-09-20T09:31:47;4.35;;;1.10;;
47625;SDS011;33342;45.574;9.252;2022-09-20T09:36:56;5.50;;;1.45;;
47625;SDS011;33342;45.574;9.252;2022-09-20T09:41:51;7.00;;;1.52;;
47625;SDS011;33342;45.574;9.252;2022-09-20T09:44:28;2.42;;;1.00;;
47625;SDS011;33342;45.574;9.252;2022-09-20T09:46:58;4.10;;;1.30;;
47625;SDS011;33342;45.574;9.252;2022-09-20T09:49:26;3.03;;;1.00;;
47625;SDS011;33342;45.574;9.252;2022-09-20T09:54:42;2.35;;;0.85;;
47625;SDS011;33342;45.574;9.252;2022-09-20T09:57:18;3.40;;;1.00;;
47625;SDS011;33342;45.574;9.252;2022-09-20T10:16:29;3.15;;;1.00;;
47625;SDS011;33342;45.574;9.252;2022-09-20T10:21:42;3.88;;;1.25;;
47625;SDS011;33342;45.574;9.252;2022-09-20T10:24:39;4.53;;;1.35;;
47625;SDS011;33342;45.574;9.252;2022-09-20T10:35:13;3.08;;;0.93;;
47625;SDS011;33342;45.574;9.252;2022-09-20T10:43:22;4.50;;;1.30;;
47625;SDS011;33342;45.574;9.252;2022-09-20T10:54:41;5.03;;;1.13;;
47625;SDS011;33342;45.574;9.252;2022-09-20T11:00:24;4.30;;;1.42;;
47625;SDS011;33342;45.574;9.252;2022-09-20T11:06:05;3.53;;;1.10;;
47625;SDS011;33342;45.574;9.252;2022-09-20T11:08:43;2.78;;;1.17;;
47625;SDS011;33342;45.574;9.252;2022-09-20T11:14:22;5.07;;;1.30;;
47625;SDS011;33342;45.574;9.252;2022-09-20T11:17:02;2.95;;;1.30;;
47625;SDS011;33342;45.574;9.252;2022-09-20T11:19:45;4.55;;;1.35;;
47625;SDS011;33342;45.574;9.252;2022-09-20T11:22:24;4.20;;;1.50;;
47625;SDS011;33342;45.574;9.252;2022-09-20T11:25:05;3.67;;;1.20;;
47625;SDS011;33342;45.574;9.252;2022-09-20T11:27:57;4.40;;;1.50;;
47625;SDS011;33342;45.574;9.252;2022-09-20T11:30:33;5.43;;;1.92;;
47625;SDS011;33342;45.574;9.252;2022-09-20T11:33:16;4.93;;;1.75;;
47625;SDS011;33342;45.574;9.252;2022-09-20T11:35:51;4.03;;;1.80;;
47625;SDS011;33342;45.574;9.252;2022-09-20T11:38:40;2.38;;;1.20;;
47625;SDS011;33342;45.574;9.252;2022-09-20T11:41:21;4.57;;;1.70;;
47625;SDS011;33342;45.574;9.252;2022-09-20T11:43:55;3.83;;;1.40;;
47625;SDS011;33342;45.574;9.252;2022-09-20T11:46:29;6.40;;;1.52;;
47625;SDS011;33342;45.574;9.252;2022-09-20T11:49:03;5.38;;;1.75;;
47625;SDS011;33342;45.574;9.252;2022-09-20T11:57:32;10.85;;;6.05;;
47625;SDS011;33342;45.574;9.252;2022-09-20T12:00:00;3.72;;;1.15;;
47625;SDS011;33342;45.574;9.252;2022-09-20T12:08:21;4.57;;;1.77;;
47625;SDS011;33342;45.574;9.252;2022-09-20T12:11:01;6.55;;;1.80;;
47625;SDS011;33342;45.574;9.252;2022-09-20T12:13:32;4.03;;;1.40;;
47625;SDS011;33342;45.574;9.252;2022-09-20T12:16:15;5.13;;;1.55;;
47625;SDS011;33342;45.574;9.252;2022-09-20T12:19:01;5.18;;;1.70;;
47625;SDS011;33342;45.574;9.252;2022-09-20T12:24:25;5.20;;;1.90;;
47625;SDS011;33342;45.574;9.252;2022-09-20T12:26:58;6.53;;;1.80;;
47625;SDS011;33342;45.574;9.252;2022-09-20T12:31:55;8.10;;;1.75;;
47625;SDS011;33342;45.574;9.252;2022-09-20T12:39:28;7.35;;;1.90;;
47625;SDS011;33342;45.574;9.252;2022-09-20T12:42:02;6.68;;;1.70;;
47625;SDS011;33342;45.574;9.252;2022-09-20T12:47:16;3.63;;;1.70;;
47625;SDS011;33342;45.574;9.252;2022-09-20T12:57:53;3.38;;;1.63;;
47625;SDS011;33342;45.574;9.252;2022-09-20T13:00:32;6.05;;;2.08;;
47625;SDS011;33342;45.574;9.252;2022-09-20T13:05:45;6.53;;;1.52;;
47625;SDS011;33342;45.574;9.252;2022-09-20T13:08:19;4.00;;;2.03;;
47625;SDS011;33342;45.574;9.252;2022-09-20T13:18:45;8.63;;;2.35;;
47625;SDS011;33342;45.574;9.252;2022-09-20T13:21:14;4.80;;;2.10;;
47625;SDS011;33342;45.574;9.252;2022-09-20T13:23:43;5.47;;;1.77;;
47625;SDS011;33342;45.574;9.252;2022-09-20T13:26:14;5.35;;;2.00;;
47625;SDS011;33342;45.574;9.252;2022-09-20T13:28:48;4.63;;;1.95;;
47625;SDS011;33342;45.574;9.252;2022-09-20T13:33:47;5.13;;;1.92;;
47625;SDS011;33342;45.574;9.252;2022-09-20T13:36:18;8.15;;;3.63;;
47625;SDS011;33342;45.574;9.252;2022-09-20T13:38:51;7.20;;;2.58;;
47625;SDS011;33342;45.574;9.252;2022-09-20T13:41:20;6.25;;;2.58;;
47625;SDS011;33342;45.574;9.252;2022-09-20T13:43:48;7.03;;;2.25;;
47625;SDS011;33342;45.574;9.252;2022-09-20T13:46:20;4.88;;;1.98;;
47625;SDS011;33342;45.574;9.252;2022-09-20T13:49:08;5.05;;;2.42;;
47625;SDS011;33342;45.574;9.252;2022-09-20T13:51:40;6.65;;;2.20;;
47625;SDS011;33342;45.574;9.252;2022-09-20T13:57:12;7.47;;;2.47;;
47625;SDS011;33342;45.574;9.252;2022-09-20T13:59:46;5.25;;;1.95;;
47625;SDS011;33342;45.574;9.252;2022-09-20T14:02:21;4.85;;;1.77;;
47625;SDS011;33342;45.574;9.252;2022-09-20T14:04:52;5.78;;;1.90;;
47625;SDS011;33342;45.574;9.252;2022-09-20T14:07:21;6.45;;;2.17;;
47625;SDS011;33342;45.574;9.252;2022-09-20T14:09:51;6.10;;;2.35;;
47625;SDS011;33342;45.574;9.252;2022-09-20T14:12:20;6.10;;;2.33;;
47625;SDS011;33342;45.574;9.252;2022-09-20T14:14:49;7.93;;;4.82;;
47625;SDS011;33342;45.574;9.252;2022-09-20T14:17:17;9.18;;;4.13;;
47625;SDS011;33342;45.574;9.252;2022-09-20T14:19:48;6.00;;;2.45;;
47625;SDS011;33342;45.574;9.252;2022-09-20T14:22:20;9.88;;;2.80;;
47625;SDS011;33342;45.574;9.252;2022-09-20T14:25:00;7.25;;;2.65;;
47625;SDS011;33342;45.574;9.252;2022-09-20T14:27:43;7.70;;;2.17;;
47625;SDS011;33342;45.574;9.252;2022-09-20T14:30:27;5.30;;;2.00;;
47625;SDS011;33342;45.574;9.252;2022-09-20T14:35:24;5.70;;;2.25;;
47625;SDS011;33342;45.574;9.252;2022-09-20T14:37:53;6.88;;;2.30;;
47625;SDS011;33342;45.574;9.252;2022-09-20T14:42:57;6.25;;;2.45;;
47625;SDS011;33342;45.574;9.252;2022-09-20T14:45:32;5.00;;;2.30;;
47625;SDS011;33342;45.574;9.252;2022-09-20T14:48:05;5.32;;;2.35;;
47625;SDS011;33342;45.574;9.252;2022-09-20T14:51:18;8.85;;;3.00;;
47625;SDS011;33342;45.574;9.252;2022-09-20T14:56:34;8.38;;;2.47;;
47625;SDS011;33342;45.574;9.252;2022-09-20T15:01:35;7.20;;;2.20;;
47625;SDS011;33342;45.574;9.252;2022-09-20T15:04:16;3.95;;;2.00;;
47625;SDS011;33342;45.574;9.252;2022-09-20T15:06:50;5.32;;;2.10;;
47625;SDS011;33342;45.574;9.252;2022-09-20T15:09:18;7.10;;;1.90;;
47625;SDS011;33342;45.574;9.252;2022-09-20T15:12:03;5.65;;;1.80;;
47625;SDS011;33342;45.574;9.252;2022-09-20T15:14:32;9.10;;;2.13;;
47625;SDS011;33342;45.574;9.252;2022-09-20T15:17:03;6.88;;;2.47;;
47625;SDS011;33342;45.574;9.252;2022-09-20T15:19:30;8.90;;;2.40;;
47625;SDS011;33342;45.574;9.252;2022-09-20T15:21:58;10.93;;;2.47;;
47625;SDS011;33342;45.574;9.252;2022-09-20T15:24:26;5.25;;;2.50;;
47625;SDS011;33342;45.574;9.252;2022-09-20T15:26:53;7.03;;;2.70;;
47625;SDS011;33342;45.574;9.252;2022-09-20T15:29:20;10.48;;;2.53;;
47625;SDS011;33342;45.574;9.252;2022-09-20T15:31:47;7.30;;;2.20;;
47625;SDS011;33342;45.574;9.252;2022-09-20T15:34:14;5.15;;;2.35;;
47625;SDS011;33342;45.574;9.252;2022-09-20T15:36:42;9.00;;;2.60;;
47625;SDS011;33342;45.574;9.252;2022-09-20T15:39:10;7.88;;;2.58;;
47625;SDS011;33342;45.574;9.252;2022-09-20T15:41:37;8.40;;;2.17;;
47625;SDS011;33342;45.574;9.252;2022-09-20T15:44:05;5.45;;;2.42;;
47625;SDS011;33342;45.574;9.252;2022-09-20T15:46:33;9.02;;;2.55;;
47625;SDS011;33342;45.574;9.252;2022-09-20T15:49:00;7.20;;;2.28;;
47625;SDS011;33342;45.574;9.252;2022-09-20T15:51:28;4.90;;;2.33;;
47625;SDS011;33342;45.574;9.252;2022-09-20T15:54:00;7.53;;;2.38;;
47625;SDS011;33342;45.574;9.252;2022-09-20T15:56:30;9.27;;;2.53;;
47625;SDS011;33342;45.574;9.252;2022-09-20T15:58:59;8.63;;;2.42;;
47625;SDS011;33342;45.574;9.252;2022-09-20T16:01:32;5.68;;;2.30;;
47625;SDS011;33342;45.574;9.252;2022-09-20T16:04:06;6.63;;;2.25;;
47625;SDS011;33342;45.574;9.252;2022-09-20T16:06:36;5.78;;;2.63;;
47625;SDS011;33342;45.574;9.252;2022-09-20T16:09:04;10.77;;;4.53;;
47625;SDS011;33342;45.574;9.252;2022-09-20T16:11:32;6.43;;;2.50;;
47625;SDS011;33342;45.574;9.252;2022-09-20T16:13:59;5.93;;;3.10;;
47625;SDS011;33342;45.574;9.252;2022-09-20T16:16:27;9.57;;;2.60;;
47625;SDS011;33342;45.574;9.252;2022-09-20T16:18:55;5.68;;;2.20;;
47625;SDS011;33342;45.574;9.252;2022-09-20T16:24:09;7.22;;;3.15;;
47625;SDS011;33342;45.574;9.252;2022-09-20T16:26:38;7.80;;;2.95;;
47625;SDS011;33342;45.574;9.252;2022-09-20T16:29:05;6.82;;;2.75;;
47625;SDS011;33342;45.574;9.252;2022-09-20T16:31:34;9.18;;;2.33;;
47625;SDS011;33342;45.574;9.252;2022-09-20T16:36:57;6.97;;;2.80;;
47625;SDS011;33342;45.574;9.252;2022-09-20T16:39:44;8.95;;;3.35;;
47625;SDS011;33342;45.574;9.252;2022-09-20T16:42:11;7.32;;;2.70;;
47625;SDS011;33342;45.574;9.252;2022-09-20T16:44:40;7.45;;;2.50;;
47625;SDS011;33342;45.574;9.252;2022-09-20T16:47:12;7.95;;;2.95;;
47625;SDS011;33342;45.574;9.252;2022-09-20T16:49:45;5.63;;;2.53;;
47625;SDS011;33342;45.574;9.252;2022-09-20T16:52:13;7.53;;;2.80;;
47625;SDS011;33342;45.574;9.252;2022-09-20T16:54:41;6.78;;;2.83;;
47625;SDS011;33342;45.574;9.252;2022-09-20T16:57:08;10.25;;;3.83;;
47625;SDS011;33342;45.574;9.252;2022-09-20T16:59:34;9.10;;;2.78;;
47625;SDS011;33342;45.574;9.252;2022-09-20T17:02:01;7.35;;;2.88;;
47625;SDS011;33342;45.574;9.252;2022-09-20T17:04:28;7.63;;;3.05;;
47625;SDS011;33342;45.574;9.252;2022-09-20T17:06:55;7.97;;;3.20;;
47625;SDS011;33342;45.574;9.252;2022-09-20T17:09:24;6.82;;;3.25;;
47625;SDS011;33342;45.574;9.252;2022-09-20T17:11:51;8.75;;;3.22;;
47625;SDS011;33342;45.574;9.252;2022-09-20T17:14:19;10.40;;;3.08;;
47625;SDS011;33342;45.574;9.252;2022-09-20T17:16:46;6.22;;;3.17;;
47625;SDS011;33342;45.574;9.252;2022-09-20T17:19:18;11.73;;;3.33;;
47625;SDS011;33342;45.574;9.252;2022-09-20T17:21:47;11.07;;;3.50;;
47625;SDS011;33342;45.574;9.252;2022-09-20T17:24:19;7.32;;;3.10;;
47625;SDS011;33342;45.574;9.252;2022-09-20T17:26:48;10.85;;;3.42;;
47625;SDS011;33342;45.574;9.252;2022-09-20T17:29:16;10.77;;;3.17;;
47625;SDS011;33342;45.574;9.252;2022-09-20T17:31:45;7.82;;;2.90;;
47625;SDS011;33342;45.574;9.252;2022-09-20T17:34:20;10.63;;;3.35;;
47625;SDS011;33342;45.574;9.252;2022-09-20T17:36:47;11.00;;;3.25;;
47625;SDS011;33342;45.574;9.252;2022-09-20T17:39:16;7.90;;;3.28;;
47625;SDS011;33342;45.574;9.252;2022-09-20T17:41:44;11.38;;;3.60;;
47625;SDS011;33342;45.574;9.252;2022-09-20T17:44:13;9.10;;;3.67;;
47625;SDS011;33342;45.574;9.252;2022-09-20T17:46:42;8.32;;;3.03;;
47625;SDS011;33342;45.574;9.252;2022-09-20T17:49:11;10.55;;;3.58;;
47625;SDS011;33342;45.574;9.252;2022-09-20T17:51:41;10.38;;;3.72;;
47625;SDS011;33342;45.574;9.252;2022-09-20T17:54:08;11.38;;;3.58;;
47625;SDS011;33342;45.574;9.252;2022-09-20T17:56:40;12.90;;;3.70;;
47625;SDS011;33342;45.574;9.252;2022-09-20T17:59:09;12.05;;;4.03;;
47625;SDS011;33342;45.574;9.252;2022-09-20T18:01:37;8.75;;;3.50;;
47625;SDS011;33342;45.574;9.252;2022-09-20T18:04:05;6.60;;;3.55;;
47625;SDS011;33342;45.574;9.252;2022-09-20T18:06:35;11.57;;;4.22;;
47625;SDS011;33342;45.574;9.252;2022-09-20T18:09:13;9.55;;;3.63;;
47625;SDS011;33342;45.574;9.252;2022-09-20T18:11:42;8.77;;;4.57;;
47625;SDS011;33342;45.574;9.252;2022-09-20T18:14:11;11.30;;;4.25;;
47625;SDS011;33342;45.574;9.252;2022-09-20T18:16:38;11.30;;;4.20;;
47625;SDS011;33342;45.574;9.252;2022-09-20T18:19:06;10.63;;;4.35;;
47625;SDS011;33342;45.574;9.252;2022-09-20T18:21:34;9.32;;;4.35;;
47625;SDS011;33342;45.574;9.252;2022-09-20T18:24:06;10.10;;;4.20;;
47625;SDS011;33342;45.574;9.252;2022-09-20T18:26:35;10.13;;;4.00;;
47625;SDS011;33342;45.574;9.252;2022-09-20T18:31:55;12.35;;;5.18;;
47625;SDS011;33342;45.574;9.252;2022-09-20T18:34:24;13.57;;;4.82;;
47625;SDS011;33342;45.574;9.252;2022-09-20T18:36:59;13.77;;;5.15;;
47625;SDS011;33342;45.574;9.252;2022-09-20T18:39:27;11.48;;;4.40;;
47625;SDS011;33342;45.574;9.252;2022-09-20T18:41:58;14.55;;;4.80;;
47625;SDS011;33342;45.574;9.252;2022-09-20T18:44:25;13.25;;;4.63;;
47625;SDS011;33342;45.574;9.252;2022-09-20T18:46:59;12.02;;;4.80;;
47625;SDS011;33342;45.574;9.252;2022-09-20T18:49:28;11.18;;;4.80;;
47625;SDS011;33342;45.574;9.252;2022-09-20T18:51:56;9.90;;;5.22;;
47625;SDS011;33342;45.574;9.252;2022-09-20T18:54:23;10.55;;;4.70;;
47625;SDS011;33342;45.574;9.252;2022-09-20T18:56:50;13.02;;;4.68;;
47625;SDS011;33342;45.574;9.252;2022-09-20T18:59:18;11.60;;;5.90;;
47625;SDS011;33342;45.574;9.252;2022-09-20T19:24:14;10.32;;;5.22;;
47625;SDS011;33342;45.574;9.252;2022-09-20T19:26:52;12.90;;;5.23;;
47625;SDS011;33342;45.574;9.252;2022-09-20T19:29:20;15.70;;;5.18;;
47625;SDS011;33342;45.574;9.252;2022-09-20T19:31:49;15.85;;;4.80;;
47625;SDS011;33342;45.574;9.252;2022-09-20T19:34:21;12.20;;;4.90;;
47625;SDS011;33342;45.574;9.252;2022-09-20T19:45:12;10.43;;;5.57;;
47625;SDS011;33342;45.574;9.252;2022-09-20T19:53:15;11.32;;;5.30;;
47625;SDS011;33342;45.574;9.252;2022-09-20T19:55:49;14.13;;;6.82;;
47625;SDS011;33342;45.574;9.252;2022-09-20T19:58:19;12.13;;;7.40;;
47625;SDS011;33342;45.574;9.252;2022-09-20T20:00:48;10.95;;;5.93;;
47625;SDS011;33342;45.574;9.252;2022-09-20T20:03:15;11.38;;;5.65;;
47625;SDS011;33342;45.574;9.252;2022-09-20T20:06:01;9.95;;;4.72;;
47625;SDS011;33342;45.574;9.252;2022-09-20T20:08:36;14.57;;;5.03;;
47625;SDS011;33342;45.574;9.252;2022-09-20T20:11:21;11.18;;;5.30;;
47625;SDS011;33342;45.574;9.252;2022-09-20T20:14:13;13.18;;;5.30;;
47625;SDS011;33342;45.574;9.252;2022-09-20T20:20:01;10.75;;;5.18;;
47625;SDS011;33342;45.574;9.252;2022-09-20T20:25:19;13.43;;;7.90;;
47625;SDS011;33342;45.574;9.252;2022-09-20T20:28:01;9.85;;;5.45;;
47625;SDS011;33342;45.574;9.252;2022-09-20T20:30:28;13.27;;;5.60;;
47625;SDS011;33342;45.574;9.252;2022-09-20T20:32:55;12.13;;;6.30;;
47625;SDS011;33342;45.574;9.252;2022-09-20T20:35:25;12.02;;;5.45;;
47625;SDS011;33342;45.574;9.252;2022-09-20T20:37:52;10.77;;;4.72;;
47625;SDS011;33342;45.574;9.252;2022-09-20T20:40:19;10.70;;;5.03;;
47625;SDS011;33342;45.574;9.252;2022-09-20T20:42:46;11.18;;;4.53;;
47625;SDS011;33342;45.574;9.252;2022-09-20T20:45:14;14.48;;;4.82;;
47625;SDS011;33342;45.574;9.252;2022-09-20T20:47:41;9.00;;;4.45;;
47625;SDS011;33342;45.574;9.252;2022-09-20T20:50:09;9.25;;;4.22;;
47625;SDS011;33342;45.574;9.252;2022-09-20T20:52:39;9.27;;;4.35;;
47625;SDS011;33342;45.574;9.252;2022-09-20T20:55:06;10.10;;;4.70;;
47625;SDS011;33342;45.574;9.252;2022-09-20T20:57:33;10.32;;;4.68;;
47625;SDS011;33342;45.574;9.252;2022-09-20T21:00:01;12.55;;;4.43;;
47625;SDS011;33342;45.574;9.252;2022-09-20T21:02:28;9.85;;;4.82;;
47625;SDS011;33342;45.574;9.252;2022-09-20T21:04:55;10.18;;;4.63;;
47625;SDS011;33342;45.574;9.252;2022-09-20T21:07:23;13.40;;;4.40;;
47625;SDS011;33342;45.574;9.252;2022-09-20T21:09:50;9.57;;;3.90;;
47625;SDS011;33342;45.574;9.252;2022-09-20T21:12:17;11.35;;;4.63;;
47625;SDS011;33342;45.574;9.252;2022-09-20T21:14:44;14.30;;;5.28;;
47625;SDS011;33342;45.574;9.252;2022-09-20T21:17:11;8.60;;;4.68;;